Time;durP1;ratioP1;P1;durP2;ratioP2;P2;SDS_P1;SDS_P2;PMS_P1;PMS_P2;Temp;Humidity;BMP_temperature;BMP_pressure;BME280_temperature;BME280_humidity;BME280_pressure;Samples;Min_cycle;Max_cycle;Signal;HPM_P1;HPM_P2
2022/05/04 00:00:19;;;;;;;10.30;5.07;;;;;;;10.97;63.42;101999.47;5050017;28;20035;-47
2022/05/04 00:02:45;;;;;;;13.07;5.03;;;;;;;10.97;63.19;102007.19;5053183;28;20060;-46
2022/05/04 00:05:10;;;;;;;12.27;5.10;;;;;;;10.96;63.21;102005.44;5053676;28;20380;-48
2022/05/04 00:07:36;;;;;;;10.65;4.88;;;;;;;10.99;63.12;102016.75;5048649;28;20032;-49
2022/05/04 00:10:03;;;;;;;12.23;4.45;;;;;;;11.00;62.49;102002.19;5049948;28;20530;-46
2022/05/04 00:12:29;;;;;;;9.30;4.85;;;;;;;10.94;62.97;102000.22;5047805;28;20716;-47
2022/05/04 00:14:54;;;;;;;15.32;4.60;;;;;;;10.95;62.66;102001.09;5049319;28;20048;-46
2022/05/04 00:17:20;;;;;;;11.02;4.57;;;;;;;10.97;62.83;102000.34;5049554;28;20115;-49
2022/05/04 00:19:45;;;;;;;9.70;4.60;;;;;;;10.94;62.18;102007.06;5049434;28;20119;-47
2022/05/04 00:22:16;;;;;;;11.27;4.55;;;;;;;10.95;62.64;102008.81;5047065;28;20035;-48
2022/05/04 00:24:41;;;;;;;11.50;4.50;;;;;;;10.88;62.83;102009.38;5049337;28;20082;-46
2022/05/04 00:27:07;;;;;;;11.32;4.15;;;;;;;10.91;62.39;102009.47;5051133;28;20029;-48
2022/05/04 00:29:32;;;;;;;11.23;4.20;;;;;;;10.92;61.94;102008.66;5056055;28;20029;-49
2022/05/04 00:31:57;;;;;;;10.38;4.20;;;;;;;10.87;62.04;102003.34;5051412;28;20438;-49
2022/05/04 00:34:23;;;;;;;10.13;4.47;;;;;;;10.87;62.37;102002.47;5050092;28;20473;-47
2022/05/04 00:36:48;;;;;;;10.20;4.10;;;;;;;10.88;62.00;102007.66;5046530;28;20503;-48
2022/05/04 00:39:13;;;;;;;11.60;4.30;;;;;;;10.88;62.21;102004.22;5051976;28;20040;-47
2022/05/04 00:41:39;;;;;;;9.25;3.53;;;;;;;10.86;61.99;102005.81;5051152;28;20020;-48
2022/05/04 00:44:04;;;;;;;16.45;4.03;;;;;;;10.87;61.93;101999.88;5049758;28;20048;-48
2022/05/04 00:46:30;;;;;;;15.45;4.60;;;;;;;10.87;62.33;102002.47;5049182;28;20051;-47
2022/05/04 00:48:55;;;;;;;13.15;4.07;;;;;;;10.87;62.26;102002.47;5053588;28;20909;-48
2022/05/04 00:51:21;;;;;;;11.15;4.25;;;;;;;10.89;61.98;102008.53;5050601;28;20041;-48
2022/05/04 00:53:47;;;;;;;9.82;4.20;;;;;;;10.83;62.04;102008.25;5052816;28;20037;-49
2022/05/04 00:56:12;;;;;;;11.02;3.85;;;;;;;10.86;62.22;101999.00;5054837;28;20413;-47
2022/05/04 00:58:57;;;;;;;14.50;4.15;;;;;;;10.89;61.76;102008.53;5053830;28;20040;-48
2022/05/04 01:01:27;;;;;;;11.38;4.22;;;;;;;10.88;61.90;101999.94;5055016;28;20700;-47
2022/05/04 01:04:02;;;;;;;10.32;4.30;;;;;;;10.91;62.02;101996.63;5053121;28;20067;-47
2022/05/04 01:06:28;;;;;;;13.95;4.57;;;;;;;10.94;61.86;101997.66;5052156;28;20478;-50
2022/05/04 01:08:54;;;;;;;10.32;4.30;;;;;;;10.88;61.88;101996.50;5056179;28;20025;-46
2022/05/04 01:11:21;;;;;;;10.07;3.92;;;;;;;10.86;61.96;101995.53;5051561;28;20427;-46
2022/05/04 01:14:12;;;;;;;9.90;4.07;;;;;;;10.85;61.57;101986.94;5048818;28;20334;-46
2022/05/04 01:16:40;;;;;;;10.93;4.10;;;;;;;10.80;62.00;101993.59;5051740;28;20497;-49
2022/05/04 01:19:06;;;;;;;12.20;3.83;;;;;;;10.79;61.77;101996.94;5051573;28;20492;-49
2022/05/04 01:21:32;;;;;;;12.05;4.18;;;;;;;10.79;62.17;101994.38;5049914;28;20693;-50
2022/05/04 01:23:58;;;;;;;12.05;3.75;;;;;;;10.79;61.81;101993.50;5053538;28;20029;-47
2022/05/04 01:26:23;;;;;;;10.73;3.95;;;;;;;10.82;61.77;102004.81;5052560;28;20078;-48
2022/05/04 01:28:49;;;;;;;11.32;3.95;;;;;;;10.79;61.38;102004.66;5052123;28;20400;-48
2022/05/04 01:31:15;;;;;;;13.90;3.60;;;;;;;10.80;61.32;102003.88;5059380;28;20060;-46
2022/05/04 01:33:40;;;;;;;10.75;3.63;;;;;;;10.80;61.22;102003.88;5051332;28;20041;-48
2022/05/04 01:36:06;;;;;;;11.73;3.85;;;;;;;10.78;61.21;102000.34;5051886;28;20436;-48
2022/05/04 01:38:32;;;;;;;8.13;3.38;;;;;;;10.74;61.04;101996.75;5054049;28;20474;-46
2022/05/04 01:40:58;;;;;;;12.10;4.00;;;;;;;10.75;60.71;101989.91;5053953;28;20497;-46
2022/05/04 01:43:24;;;;;;;11.00;3.53;;;;;;;10.80;61.08;101995.25;5053029;28;20049;-47
2022/05/04 01:45:49;;;;;;;11.05;4.43;;;;;;;10.76;61.47;101991.69;5048491;28;20123;-49
2022/05/04 01:48:14;;;;;;;10.65;3.72;;;;;;;10.69;61.19;101980.22;5055096;28;20114;-48
2022/05/04 01:50:40;;;;;;;9.30;4.28;;;;;;;10.63;61.05;101987.66;5046619;28;20040;-51
2022/05/04 01:53:06;;;;;;;11.70;3.78;;;;;;;10.63;61.19;101990.25;5049657;28;20152;-51
2022/05/04 01:55:33;;;;;;;13.38;4.22;;;;;;;10.65;61.23;101992.88;5032882;28;20566;-49
2022/05/04 01:57:58;;;;;;;11.98;4.13;;;;;;;10.62;61.34;101985.91;5039439;28;20032;-49
2022/05/04 02:00:24;;;;;;;14.32;4.20;;;;;;;10.60;61.78;101990.09;5033947;28;20385;-49
2022/05/04 02:02:50;;;;;;;12.88;3.85;;;;;;;10.61;61.65;101990.97;5030661;28;20748;-49
2022/05/04 02:05:16;;;;;;;11.43;3.75;;;;;;;10.58;61.26;101991.72;5036522;28;20037;-48
2022/05/04 02:07:43;;;;;;;10.38;3.38;;;;;;;10.54;61.91;101987.22;5034387;28;20738;-50
2022/05/04 02:10:09;;;;;;;16.10;4.15;;;;;;;10.53;61.77;101997.47;5030165;28;20077;-48
2022/05/04 02:12:35;;;;;;;11.20;3.72;;;;;;;10.52;62.06;101986.28;5030339;28;20128;-49
2022/05/04 02:15:01;;;;;;;11.93;4.03;;;;;;;10.55;61.72;101991.56;5032014;28;20999;-48
2022/05/04 02:17:26;;;;;;;9.60;3.78;;;;;;;10.48;61.47;101989.53;5039359;28;20375;-47
2022/05/04 02:19:52;;;;;;;15.20;4.43;;;;;;;10.51;61.83;101988.81;5053241;28;20040;-47
2022/05/04 02:22:18;;;;;;;12.23;3.67;;;;;;;10.49;61.60;101986.13;5049005;28;20083;-46
2022/05/04 02:24:43;;;;;;;10.18;3.75;;;;;;;10.45;62.36;101977.41;5030969;28;20044;-46
2022/05/04 02:27:09;;;;;;;16.65;4.22;;;;;;;10.45;61.63;101982.56;5030523;28;20041;-47
2022/05/04 02:29:34;;;;;;;10.27;3.63;;;;;;;10.37;62.03;101978.72;5029286;28;20086;-48
2022/05/04 02:32:00;;;;;;;10.35;3.85;;;;;;;10.41;62.46;101987.47;5034489;28;20391;-48
2022/05/04 02:34:26;;;;;;;13.43;3.65;;;;;;;10.38;62.03;101979.63;5034104;28;20040;-48
2022/05/04 02:39:35;;;;;;;11.38;4.28;;;;;;;10.35;62.41;101985.50;5031712;28;20138;-48
2022/05/04 02:42:01;;;;;;;16.52;3.75;;;;;;;10.35;62.31;101984.63;5029975;28;20037;-46
2022/05/04 02:44:27;;;;;;;11.38;3.90;;;;;;;10.36;62.22;101981.25;5032550;28;20765;-49
2022/05/04 02:46:52;;;;;;;11.52;4.03;;;;;;;10.34;62.29;101980.28;5036077;28;20071;-47
2022/05/04 02:49:18;;;;;;;13.68;3.85;;;;;;;10.34;62.24;101977.72;5038190;28;20032;-46
2022/05/04 02:51:43;;;;;;;13.55;4.57;;;;;;;10.34;62.42;101973.47;5051047;28;20051;-46
2022/05/04 02:54:09;;;;;;;12.68;4.05;;;;;;;10.35;62.29;101975.22;5046092;28;21084;-47
2022/05/04 02:56:34;;;;;;;13.18;3.75;;;;;;;10.33;62.96;101970.81;5030481;28;20032;-46
2022/05/04 02:58:59;;;;;;;12.00;4.22;;;;;;;10.30;62.43;101971.53;5031496;28;20036;-49
2022/05/04 03:04:09;;;;;;;9.40;3.90;;;;;;;10.27;62.32;101974.00;5028066;28;20071;-49
2022/05/04 03:06:36;;;;;;;14.45;4.10;;;;;;;10.28;63.13;101973.19;5036552;28;20033;-47
2022/05/04 03:09:03;;;;;;;11.15;3.92;;;;;;;10.26;62.81;101971.34;5030157;28;21271;-47
2022/05/04 03:14:12;;;;;;;10.27;4.22;;;;;;;10.22;62.67;101962.56;5033071;28;20055;-46
2022/05/04 03:16:39;;;;;;;13.02;4.00;;;;;;;10.22;62.95;101962.56;5032739;28;20040;-47
2022/05/04 03:19:06;;;;;;;10.25;3.85;;;;;;;10.24;62.77;101962.66;5044194;28;20613;-48
2022/05/04 03:21:33;;;;;;;13.77;4.03;;;;;;;10.20;62.83;101964.19;5050601;28;20507;-48
2022/05/04 03:23:58;;;;;;;13.00;4.20;;;;;;;10.17;62.83;101957.22;5050234;28;20412;-50
2022/05/04 03:26:26;;;;;;;12.35;4.20;;;;;;;10.19;62.45;101953.03;5054253;28;20036;-48
2022/05/04 03:28:52;;;;;;;10.82;4.25;;;;;;;10.23;62.48;101958.31;5048328;28;20669;-46
2022/05/04 03:31:18;;;;;;;13.65;4.25;;;;;;;10.24;62.54;101953.25;5054135;28;20027;-48
2022/05/04 03:33:43;;;;;;;12.70;4.55;;;;;;;10.27;62.79;101956.00;5048917;28;20097;-46
2022/05/04 03:36:09;;;;;;;12.68;4.40;;;;;;;10.21;62.54;101950.53;5055597;28;20057;-48
2022/05/04 03:38:34;;;;;;;16.75;4.55;;;;;;;10.13;62.73;101952.75;5052801;28;20036;-46
2022/05/04 03:40:59;;;;;;;8.23;4.40;;;;;;;10.13;62.72;101952.75;5050295;28;20082;-48
2022/05/04 03:43:25;;;;;;;11.23;4.38;;;;;;;10.14;62.72;101951.06;5046639;28;20084;-49
2022/05/04 03:45:51;;;;;;;18.20;4.25;;;;;;;10.08;62.71;101950.78;5049839;28;20052;-47
2022/05/04 03:48:16;;;;;;;14.05;3.85;;;;;;;10.07;62.66;101956.69;5053250;28;21040;-46
2022/05/04 03:50:44;;;;;;;12.38;4.38;;;;;;;10.04;63.27;101954.88;5049186;28;20048;-47
2022/05/04 03:53:10;;;;;;;9.60;4.18;;;;;;;9.94;63.19;101958.69;5050012;28;20036;-46
2022/05/04 03:55:35;;;;;;;13.73;4.47;;;;;;;9.98;63.89;101952.00;5047176;28;20032;-46
2022/05/04 03:58:01;;;;;;;10.60;4.05;;;;;;;9.97;63.55;101954.50;5052983;28;20044;-48
2022/05/04 04:00:26;;;;;;;14.82;4.57;;;;;;;9.98;63.75;101961.41;5052262;28;20041;-46
2022/05/04 04:02:52;;;;;;;13.25;4.68;;;;;;;9.92;63.45;101962.00;5048574;28;20024;-47
2022/05/04 04:05:17;;;;;;;14.23;4.20;;;;;;;9.97;63.55;101960.53;5053878;28;20473;-48
2022/05/04 04:07:43;;;;;;;11.15;4.65;;;;;;;9.93;63.84;101950.91;5049771;28;20427;-45
2022/05/04 04:10:09;;;;;;;14.45;4.63;;;;;;;9.92;63.69;101954.28;5048068;28;20094;-48
2022/05/04 04:12:34;;;;;;;18.02;5.25;;;;;;;9.87;64.07;101954.06;5047821;28;20111;-46
2022/05/04 04:14:59;;;;;;;12.73;4.93;;;;;;;9.85;64.08;101949.66;5045384;28;20055;-46
2022/05/04 04:17:25;;;;;;;13.60;4.85;;;;;;;9.83;64.16;101952.16;5047838;28;20090;-47
2022/05/04 04:21:50;;;;;;;10.20;3.97;;;;;;;9.80;63.71;101952.00;5049518;28;20037;-49
2022/05/04 04:22:35;;;;;;;12.07;4.75;;;;;;;9.79;63.95;101954.50;5048953;28;20460;-47
2022/05/04 04:25:02;;;;;;;9.00;4.50;;;;;;;9.71;64.37;101945.53;5054625;28;20112;-48
2022/05/04 04:27:30;;;;;;;14.93;5.22;;;;;;;9.70;64.44;101949.78;5052409;28;20036;-46
2022/05/04 04:29:56;;;;;;;13.55;4.60;;;;;;;9.68;64.85;101961.69;5057143;28;20028;-47
2022/05/04 04:32:21;;;;;;;14.57;4.63;;;;;;;9.63;64.63;101958.88;5055557;28;20550;-48
2022/05/04 04:34:46;;;;;;;15.48;5.13;;;;;;;9.62;64.95;101962.25;5055350;28;20048;-47
2022/05/04 04:37:12;;;;;;;14.07;5.05;;;;;;;9.60;64.69;101971.59;5054093;28;20413;-47
2022/05/04 04:39:37;;;;;;;13.93;5.15;;;;;;;9.56;65.38;101966.22;5053335;28;20020;-47
2022/05/04 04:42:03;;;;;;;16.52;6.13;;;;;;;9.54;65.48;101973.84;5053539;28;20171;-49
2022/05/04 04:44:28;;;;;;;14.43;4.75;;;;;;;9.51;65.88;101965.97;5050269;28;20076;-46
2022/05/04 04:46:55;;;;;;;14.10;4.70;;;;;;;9.53;65.89;101968.66;5050783;28;20048;-46
2022/05/04 04:49:20;;;;;;;15.20;5.30;;;;;;;9.52;65.71;101972.88;5054039;28;20032;-47
2022/05/04 04:51:45;;;;;;;16.50;4.53;;;;;;;9.49;66.07;101970.16;5048855;28;20043;-50
2022/05/04 04:54:11;;;;;;;13.63;5.22;;;;;;;9.51;65.46;101962.53;5049011;28;20040;-46
2022/05/04 04:56:36;;;;;;;13.38;5.15;;;;;;;9.55;65.26;101967.91;5050542;28;20186;-46
2022/05/04 04:59:01;;;;;;;13.48;5.03;;;;;;;9.56;64.98;101969.66;5050167;28;20810;-47
2022/05/04 05:01:27;;;;;;;14.30;4.72;;;;;;;9.56;64.93;101967.09;5050618;28;20029;-47
2022/05/04 05:03:52;;;;;;;10.05;4.30;;;;;;;9.53;65.29;101966.06;5041316;28;20252;-46
2022/05/04 05:06:19;;;;;;;16.98;4.93;;;;;;;9.54;65.13;101972.97;5050510;28;20500;-46
2022/05/04 05:08:44;;;;;;;11.85;4.40;;;;;;;9.52;64.94;101969.44;5050863;28;20028;-48
2022/05/04 05:11:10;;;;;;;14.65;4.35;;;;;;;9.49;65.00;101965.03;5050175;28;20647;-46
2022/05/04 05:16:06;;;;;;;15.50;4.53;;;;;;;9.44;64.81;101970.75;5046034;28;20481;-46
2022/05/04 05:16:20;;;;;;;14.43;4.50;;;;;;;9.50;64.95;101973.63;5053568;28;20054;-47
2022/05/04 05:18:46;;;;;;;13.05;4.60;;;;;;;9.54;65.06;101972.97;5051365;28;20041;-49
2022/05/04 05:21:11;;;;;;;15.60;4.75;;;;;;;9.53;65.38;101968.66;5051540;28;20359;-48
2022/05/04 05:23:37;;;;;;;15.73;4.88;;;;;;;9.67;64.52;101978.78;5053115;28;20036;-48
2022/05/04 05:26:02;;;;;;;11.07;4.57;;;;;;;9.70;64.73;101977.16;5054514;28;20676;-46
2022/05/04 05:28:27;;;;;;;17.17;4.85;;;;;;;9.77;64.18;101976.66;5053281;28;21090;-48
2022/05/04 05:30:53;;;;;;;16.10;4.60;;;;;;;9.77;64.31;101972.44;5054049;28;20037;-46
2022/05/04 05:33:18;;;;;;;16.95;4.60;;;;;;;9.80;64.52;101970.00;5052376;28;20037;-47
2022/05/04 05:35:44;;;;;;;14.73;4.68;;;;;;;9.84;63.88;101965.91;5053130;28;20033;-47
2022/05/04 05:38:10;;;;;;;16.23;4.72;;;;;;;9.81;64.07;101968.28;5049161;28;20041;-49
2022/05/04 05:40:36;;;;;;;13.85;4.85;;;;;;;9.91;64.00;101968.81;5054381;28;20025;-48
2022/05/04 05:43:02;;;;;;;12.82;4.28;;;;;;;9.94;63.74;101966.38;5054257;28;20536;-46
2022/05/04 05:45:27;;;;;;;14.07;4.68;;;;;;;9.96;63.53;101965.59;5053204;28;20029;-47
2022/05/04 05:47:53;;;;;;;13.10;4.38;;;;;;;10.02;64.12;101966.78;5045496;28;20032;-47
2022/05/04 05:50:18;;;;;;;10.85;4.35;;;;;;;10.09;63.31;101965.38;5056589;28;20039;-47
2022/05/04 05:52:44;;;;;;;13.55;4.53;;;;;;;10.14;63.18;101974.19;5056025;28;20033;-46
2022/05/04 05:55:10;;;;;;;13.65;4.43;;;;;;;10.19;63.06;101972.69;5056324;28;20032;-47
2022/05/04 05:57:35;;;;;;;13.88;4.40;;;;;;;10.24;62.18;101975.53;5058261;28;20024;-48
2022/05/04 06:00:02;;;;;;;14.70;4.05;;;;;;;10.37;62.29;101970.13;5055073;28;20926;-47
2022/05/04 06:02:28;;;;;;;15.07;4.30;;;;;;;10.41;61.10;101979.75;5054127;28;20032;-46
2022/05/04 06:04:54;;;;;;;15.63;5.30;;;;;;;10.47;61.64;101980.06;5058420;28;20028;-45
2022/05/04 06:07:19;;;;;;;13.45;4.20;;;;;;;10.55;60.94;101975.25;5058523;28;20036;-46
2022/05/04 06:09:44;;;;;;;15.75;3.70;;;;;;;10.59;60.37;101978.03;5058082;28;20032;-46
2022/05/04 06:12:10;;;;;;;9.10;3.78;;;;;;;10.61;60.23;101984.13;5055999;28;20029;-48
2022/05/04 06:14:35;;;;;;;16.80;4.20;;;;;;;10.66;60.07;101985.22;5058294;28;20028;-49
2022/05/04 06:17:01;;;;;;;10.68;3.92;;;;;;;10.79;60.06;101981.50;5054913;28;20871;-49
2022/05/04 06:19:26;;;;;;;12.43;4.22;;;;;;;10.93;59.77;101989.88;5055744;28;20029;-48
2022/05/04 06:21:51;;;;;;;13.95;4.05;;;;;;;11.00;58.16;101992.78;5059002;28;20028;-47
2022/05/04 06:24:17;;;;;;;10.93;4.32;;;;;;;11.05;58.47;101992.97;5059347;28;20409;-46
2022/05/04 06:26:42;;;;;;;13.55;4.40;;;;;;;11.04;58.24;101986.03;5053678;28;20268;-46
2022/05/04 06:29:07;;;;;;;14.48;4.55;;;;;;;11.14;57.79;102001.09;5059364;28;20082;-46
2022/05/04 06:34:17;;;;;;;14.77;4.28;;;;;;;11.37;57.99;101988.34;5058202;28;20062;-50
2022/05/04 06:36:42;;;;;;;10.10;4.13;;;;;;;11.56;57.50;101990.88;5054964;28;20501;-50
2022/05/04 06:39:09;;;;;;;10.63;4.07;;;;;;;11.60;56.95;101985.03;5052841;28;20453;-48
2022/05/04 06:41:36;;;;;;;13.52;4.07;;;;;;;11.69;56.72;101984.53;5056942;28;20036;-49
2022/05/04 06:44:03;;;;;;;11.13;4.03;;;;;;;11.83;56.24;101988.59;5056689;28;20421;-46
2022/05/04 06:46:28;;;;;;;13.50;4.10;;;;;;;11.89;57.03;101985.38;5054476;28;20041;-46
2022/05/04 06:48:53;;;;;;;14.43;3.45;;;;;;;12.01;55.71;101997.09;5057789;28;20020;-45
2022/05/04 06:51:19;;;;;;;13.43;4.10;;;;;;;12.07;54.77;101989.59;5058455;28;20032;-48
2022/05/04 06:53:44;;;;;;;12.32;4.05;;;;;;;12.16;55.84;101988.19;5056594;28;20385;-49
2022/05/04 06:56:10;;;;;;;15.63;4.10;;;;;;;12.27;54.32;101987.78;5063981;28;20420;-48
2022/05/04 06:58:36;;;;;;;8.38;3.10;;;;;;;12.44;54.06;101985.88;5052593;28;20115;-48
2022/05/04 07:01:03;;;;;;;14.98;3.65;;;;;;;12.49;52.97;101978.28;5065096;28;20032;-46
2022/05/04 07:03:29;;;;;;;15.27;3.92;;;;;;;12.63;52.56;101987.44;5063487;28;20546;-47
2022/05/04 07:05:54;;;;;;;9.98;3.70;;;;;;;12.72;53.42;101987.75;5060859;28;20037;-49
2022/05/04 07:08:20;;;;;;;15.68;4.10;;;;;;;12.80;53.26;101986.38;5056186;28;20047;-47
2022/05/04 07:10:45;;;;;;;13.90;3.63;;;;;;;12.97;52.38;101986.97;5057117;28;20032;-47
2022/05/04 07:13:11;;;;;;;11.00;4.05;;;;;;;13.07;52.09;101983.00;5063267;28;20085;-48
2022/05/04 07:15:36;;;;;;;8.82;3.50;;;;;;;13.07;50.91;101990.75;5042140;28;20123;-46
2022/05/04 07:18:01;;;;;;;11.88;4.03;;;;;;;13.11;50.73;101993.53;5058982;28;20041;-47
2022/05/04 07:20:27;;;;;;;12.75;3.70;;;;;;;13.06;50.71;101995.06;5061752;28;20038;-46
2022/05/04 07:22:52;;;;;;;11.10;3.60;;;;;;;13.16;51.65;101988.50;5058867;28;20104;-46
2022/05/04 07:25:19;;;;;;;13.68;3.92;;;;;;;13.18;51.18;101986.00;5059158;28;20369;-49
2022/05/04 07:27:44;;;;;;;9.85;4.00;;;;;;;13.28;50.84;101983.78;5059571;28;20032;-46
2022/05/04 07:30:10;;;;;;;10.65;3.90;;;;;;;13.40;52.07;101981.63;5053629;28;20047;-47
2022/05/04 07:32:36;;;;;;;8.80;3.65;;;;;;;13.47;50.92;101979.25;5047326;28;20490;-48
2022/05/04 07:35:02;;;;;;;10.75;3.60;;;;;;;13.56;51.58;101982.16;5053116;28;20028;-48
2022/05/04 07:37:27;;;;;;;8.98;3.83;;;;;;;13.69;50.65;101979.16;5053794;28;20086;-48
2022/05/04 07:42:39;;;;;;;12.85;3.97;;;;;;;13.89;48.67;101988.47;5055193;28;20043;-49
2022/05/04 07:45:11;;;;;;;10.68;4.32;;;;;;;13.89;48.71;101979.78;5051740;28;20463;-47
2022/05/04 07:47:37;;;;;;;12.60;4.60;;;;;;;13.90;50.12;101984.16;5054978;28;20492;-47
2022/05/04 07:50:05;;;;;;;12.65;4.43;;;;;;;14.01;49.43;101981.91;5054726;28;20062;-47
2022/05/04 07:52:31;;;;;;;10.13;4.28;;;;;;;14.12;49.45;101986.56;5055997;28;20029;-47
2022/05/04 07:54:56;;;;;;;11.95;4.85;;;;;;;14.21;49.11;101986.00;5058046;28;20033;-48
2022/05/04 07:57:22;;;;;;;11.38;4.82;;;;;;;14.27;49.24;101986.19;5056085;28;20033;-49
2022/05/04 08:04:16;;;;;;;7.88;4.60;;;;;;;14.33;47.95;101986.38;5057724;28;20043;-48
2022/05/04 08:05:20;;;;;;;13.68;4.82;;;;;;;14.60;49.38;101988.06;5060542;28;20455;-47
2022/05/04 08:07:45;;;;;;;7.68;4.45;;;;;;;14.67;47.97;101995.16;5046820;28;20036;-48
2022/05/04 08:10:11;;;;;;;11.95;4.50;;;;;;;14.77;47.26;101997.19;5057032;28;20029;-46
2022/05/04 08:12:36;;;;;;;10.48;4.60;;;;;;;14.82;47.77;101999.94;5057481;28;20442;-46
2022/05/04 08:15:02;;;;;;;10.27;4.63;;;;;;;14.88;48.28;101994.94;5059712;28;20020;-49
2022/05/04 08:17:28;;;;;;;10.40;5.03;;;;;;;14.80;46.62;101997.28;5055713;28;20044;-49
2022/05/04 08:19:53;;;;;;;11.50;4.72;;;;;;;14.91;46.72;101995.00;5059184;28;20031;-48
2022/05/04 08:22:19;;;;;;;15.85;5.30;;;;;;;14.99;46.60;101989.22;5060937;28;20036;-46
2022/05/04 08:24:45;;;;;;;12.90;5.03;;;;;;;15.06;46.47;101987.66;5055220;28;20087;-49
2022/05/04 08:27:10;;;;;;;15.85;5.10;;;;;;;15.20;47.09;101986.31;5062280;28;20028;-46
2022/05/04 08:29:36;;;;;;;12.98;5.35;;;;;;;15.23;46.08;101993.31;5059422;28;20032;-49
2022/05/04 08:32:02;;;;;;;11.35;5.45;;;;;;;15.31;46.95;101986.63;5063701;28;20097;-47
2022/05/04 08:34:27;;;;;;;12.77;5.45;;;;;;;15.42;46.58;101986.91;5055748;28;20040;-49
2022/05/04 08:36:52;;;;;;;9.68;5.47;;;;;;;15.54;46.53;101988.09;5058908;28;20031;-47
2022/05/04 08:39:18;;;;;;;11.65;5.45;;;;;;;15.59;46.72;101984.72;5065146;28;20493;-48
2022/05/04 08:41:44;;;;;;;10.90;5.25;;;;;;;15.53;46.06;101986.34;5049647;28;20158;-46
2022/05/04 08:44:11;;;;;;;15.40;5.57;;;;;;;15.69;46.39;101995.41;5062716;28;20052;-46
2022/05/04 08:46:44;;;;;;;13.73;5.43;;;;;;;15.71;46.72;101993.75;5063892;28;20035;-48
2022/05/04 08:49:12;;;;;;;10.27;5.45;;;;;;;15.66;45.45;101994.47;5060646;28;20043;-49
2022/05/04 08:51:39;;;;;;;11.43;5.53;;;;;;;15.69;45.93;101987.63;5053385;28;20045;-48
2022/05/04 08:54:06;;;;;;;10.80;5.25;;;;;;;15.83;46.35;101982.78;5055761;28;20025;-47
2022/05/04 08:56:33;;;;;;;11.80;4.80;;;;;;;15.86;44.88;101982.00;5058190;28;20063;-48
2022/05/04 08:59:01;;;;;;;11.55;5.85;;;;;;;15.95;45.51;101983.06;5061213;28;20033;-49
2022/05/04 09:01:26;;;;;;;14.23;5.05;;;;;;;15.89;45.72;101984.63;5060188;28;20547;-46
2022/05/04 09:03:52;;;;;;;13.55;6.00;;;;;;;16.08;45.71;101986.84;5058820;28;20032;-47
2022/05/04 09:06:29;;;;;;;12.07;5.90;;;;;;;16.13;45.52;101984.34;5059140;28;20048;-49
2022/05/04 09:08:55;;;;;;;9.65;5.38;;;;;;;16.13;44.44;101984.34;5056638;28;20832;-48
2022/05/04 09:11:24;;;;;;;9.88;5.45;;;;;;;16.18;45.04;101982.72;5063708;28;20535;-46
2022/05/04 09:13:50;;;;;;;12.73;5.95;;;;;;;16.20;44.88;101987.13;5057121;28;20094;-48
2022/05/04 09:16:31;;;;;;;11.93;5.75;;;;;;;16.38;44.99;101984.06;5063824;28;20040;-48
2022/05/04 09:19:00;;;;;;;12.52;5.70;;;;;;;16.41;43.90;101980.66;5066355;28;20095;-46
2022/05/04 09:21:26;;;;;;;;;;;;;;;16.59;45.37;101971.53;5061830;28;20454;-47
2022/05/04 09:23:53;;;;;;;11.02;5.68;;;;;;;16.51;44.33;101973.09;5062599;28;19916;-49
2022/05/04 09:26:20;;;;;;;10.48;5.40;;;;;;;16.55;44.15;101974.03;5061844;28;20029;-48
2022/05/04 09:28:52;;;;;;;13.50;6.00;;;;;;;16.63;43.71;101962.09;5059459;28;20024;-48
2022/05/04 09:31:18;;;;;;;11.32;5.85;;;;;;;16.63;43.66;101968.19;5063171;28;20032;-48
2022/05/04 09:33:52;;;;;;;12.30;5.63;;;;;;;16.71;43.58;101959.69;5061471;28;20043;-47
2022/05/04 09:45:12;;;;;;;13.63;6.25;;;;;;;16.92;43.64;101960.09;5063581;28;20055;-49
2022/05/04 09:47:40;;;;;;;14.60;6.25;;;;;;;16.92;43.73;101957.50;5058471;28;20604;-51
2022/05/04 09:50:08;;;;;;;11.73;6.50;;;;;;;16.91;42.52;101957.47;5062142;28;20170;-47
2022/05/04 09:52:50;;;;;;;12.43;6.18;;;;;;;16.96;42.93;101964.53;5063512;28;20493;-47
2022/05/04 09:55:24;;;;;;;10.60;6.55;;;;;;;16.85;42.08;101958.22;5061008;28;20063;-48
2022/05/04 09:57:51;;;;;;;15.38;6.80;;;;;;;16.92;42.78;101954.91;5061938;28;20024;-46
2022/05/04 10:00:19;;;;;;;11.88;6.18;;;;;;;17.04;42.70;101951.66;5063873;28;20393;-47
2022/05/04 10:02:46;;;;;;;14.40;6.85;;;;;;;17.05;42.45;101954.31;5057598;28;20027;-49
2022/05/04 10:05:13;;;;;;;13.40;6.07;;;;;;;17.13;41.45;101949.25;5061703;28;20102;-47
2022/05/04 10:07:39;;;;;;;10.30;5.68;;;;;;;17.31;41.84;101944.38;5062999;28;20036;-49
2022/05/04 10:10:10;;;;;;;12.27;6.40;;;;;;;17.38;42.12;101942.75;5062721;28;20024;-50
2022/05/04 10:12:39;;;;;;;12.98;6.22;;;;;;;17.51;41.20;101954.25;5059847;28;20037;-50
2022/05/04 10:15:11;;;;;;;;;;;;;;;17.73;42.35;101958.13;5061591;28;20078;-46
2022/05/04 10:17:55;;;;;;;15.27;6.82;;;;;;;17.85;42.77;101955.72;5058415;28;20292;-49
2022/05/04 10:20:22;;;;;;;14.68;7.30;;;;;;;17.95;41.21;101954.97;5064147;28;20028;-50
2022/05/04 10:22:53;;;;;;;10.90;6.97;;;;;;;17.86;40.38;101945.31;5057698;28;20270;-47
2022/05/04 10:25:20;;;;;;;11.55;7.10;;;;;;;17.82;40.14;101940.03;5060246;28;20507;-49
2022/05/04 10:27:49;;;;;;;10.18;6.85;;;;;;;17.88;40.17;101947.94;5064457;28;20519;-49
2022/05/04 10:30:34;;;;;;;13.45;6.88;;;;;;;18.09;40.61;101950.00;5053832;28;20024;-49
2022/05/04 10:33:09;;;;;;;12.88;7.20;;;;;;;18.02;40.28;101950.75;5061524;28;20032;-48
2022/05/04 10:35:40;;;;;;;13.00;7.13;;;;;;;18.22;40.43;101939.78;5059619;28;20462;-49
2022/05/04 10:38:29;;;;;;;12.05;6.53;;;;;;;18.37;40.91;101936.50;5055622;28;20074;-49
2022/05/04 10:40:57;;;;;;;12.35;6.15;;;;;;;18.52;39.57;101947.97;5064326;28;20432;-49
2022/05/04 10:43:34;;;;;;;14.15;7.20;;;;;;;18.64;40.17;101938.59;5061496;28;20036;-50
2022/05/04 10:46:24;;;;;;;13.07;7.18;;;;;;;18.78;40.19;101945.72;5060584;28;20028;-48
2022/05/04 10:48:55;;;;;;;11.95;7.30;;;;;;;18.76;39.49;101937.88;5047897;28;20047;-49
2022/05/04 10:51:42;;;;;;;10.50;6.20;;;;;;;18.97;39.16;101937.22;5057881;28;20062;-49
2022/05/04 10:54:17;;;;;;;12.85;6.18;;;;;;;19.13;38.74;101928.72;5059823;28;20036;-47
2022/05/04 10:56:45;;;;;;;14.10;7.05;;;;;;;19.20;38.77;101932.25;5054903;28;20028;-50
2022/05/04 10:59:12;;;;;;;12.57;6.93;;;;;;;19.32;37.92;101929.75;5057823;28;20598;-49
2022/05/04 11:01:39;;;;;;;12.40;7.00;;;;;;;19.33;37.85;101921.06;5058132;28;20020;-48
2022/05/04 11:04:11;;;;;;;13.57;7.25;;;;;;;19.50;37.90;101919.47;5056948;28;20032;-50
2022/05/04 11:06:46;;;;;;;13.35;7.20;;;;;;;19.66;38.01;101925.75;5055826;28;20395;-49
2022/05/04 11:09:17;;;;;;;14.35;6.82;;;;;;;19.77;37.37;101912.75;5062052;28;20476;-47
2022/05/04 11:11:50;;;;;;;12.65;6.95;;;;;;;19.87;36.81;101930.22;5057612;28;20028;-49
2022/05/04 11:14:18;;;;;;;13.65;6.70;;;;;;;19.88;35.77;101925.88;5060621;28;20444;-51
2022/05/04 11:16:45;;;;;;;10.93;6.05;;;;;;;20.08;35.74;101925.16;5061551;28;20040;-51
2022/05/04 11:19:12;;;;;;;10.82;6.32;;;;;;;20.14;36.02;101918.19;5060785;28;20028;-51
2022/05/04 11:21:38;;;;;;;9.73;6.30;;;;;;;20.19;33.91;101924.31;5056366;28;20036;-49
2022/05/04 11:24:06;;;;;;;10.98;6.63;;;;;;;20.15;34.76;101919.97;5064212;28;20537;-50
2022/05/04 11:26:39;;;;;;;11.57;6.30;;;;;;;20.33;34.58;101918.31;5061874;28;20028;-49
2022/05/04 11:29:24;;;;;;;18.60;6.60;;;;;;;20.39;35.45;101914.84;5059477;28;20086;-48
2022/05/04 11:31:57;;;;;;;13.10;6.78;;;;;;;20.09;34.23;101913.84;5044448;28;20032;-50
2022/05/04 11:34:24;;;;;;;13.73;6.30;;;;;;;20.28;35.01;101917.41;5060551;28;20463;-51
2022/05/04 11:36:52;;;;;;;12.18;6.03;;;;;;;20.24;34.03;101909.53;5057262;28;20028;-48
2022/05/04 11:39:23;;;;;;;11.32;6.15;;;;;;;20.19;35.21;101911.25;5061044;28;20595;-50
2022/05/04 11:41:53;;;;;;;10.95;6.07;;;;;;;20.00;35.08;101913.75;5058291;28;20078;-51
2022/05/04 11:44:21;;;;;;;14.57;6.30;;;;;;;19.85;35.33;101907.59;5055043;28;20060;-47